Terminal Aerodrome Forecast
Issued by NWS

Home | Current Version | Previous Version | Text Only | Print | Product List | Glossary On
Versions: 1 2 3 4 5 6 7 8 9 10 11 12 13 14 15 16 17 18 19 20 21 22 23 24 25 26 27 28 29 30 31 32 33 34 35 36 37 38 39 40 41 42 43 44 45 46 47 48 49 50
000
FTUS45 KBOU 270532
TAFAPA
TAF
KAPA 270532Z 2706/2806 19010KT 1 1/2SM -SN BR SCT014 OVC025
      TEMPO 2706/2707 3/4SM -SN BLSN BKN012 OVC020
     FM270700 16012KT 5SM -SN BR SCT020 OVC035
     FM270900 17010KT P6SM SCT030 BKN045 OVC070
     FM271800 15014KT P6SM FEW030 BKN050
     FM280200 18010KT P6SM FEW050 SCT080 SCT120=

USA.gov is the U.S. government's official web portal to all federal, state and local government web resources and services.